ASA66 PACV-PAYA
Flight info
| Callsign | ASA66 |
|---|---|
| Flight time | 0h 37m |
| Altitude | 27000 |
| Route | FORAT MALAS V319 YAK |
| Aircraft | B737/M-SDE2E3FGHIRWXY/LB1 |
Departure
| Time | 2026-04-25 03:27 |
|---|---|
| Airport | Merle K (Mudhole) Smith Airport (PACV) |
Arrival
| Time | 2026-04-25 04:04 |
|---|---|
| Airport | Yakutat Airport (PAYA) |
| Time | Latitude | Longitude | Altitude | Speed | Heading |
|---|---|---|---|---|---|
| 2026-04-25 03:08 | 60.49388 | -145.47268 | 93 ft | 0 kts | 25° |
| 2026-04-25 03:21 | 60.49392 | -145.47264 | 93 ft | 2 kts | 22° |
| 2026-04-25 03:21 | 60.49402 | -145.47296 | 95 ft | 4 kts | 262° |
| 2026-04-25 03:22 | 60.49379 | -145.47394 | 95 ft | 7 kts | 235° |
| 2026-04-25 03:22 | 60.49359 | -145.47433 | 94 ft | 5 kts | 220° |
| 2026-04-25 03:22 | 60.49292 | -145.47502 | 93 ft | 14 kts | 203° |
| 2026-04-25 03:22 | 60.49222 | -145.47611 | 92 ft | 13 kts | 253° |
| 2026-04-25 03:23 | 60.49252 | -145.47789 | 91 ft | 19 kts | 294° |
| 2026-04-25 03:23 | 60.49329 | -145.48136 | 89 ft | 28 kts | 294° |
| 2026-04-25 03:23 | 60.49406 | -145.48484 | 87 ft | 26 kts | 294° |
| 2026-04-25 03:23 | 60.49479 | -145.48807 | 86 ft | 24 kts | 294° |
| 2026-04-25 03:24 | 60.49546 | -145.49109 | 88 ft | 23 kts | 294° |
| 2026-04-25 03:24 | 60.49605 | -145.49393 | 89 ft | 22 kts | 280° |
| 2026-04-25 03:24 | 60.49604 | -145.49684 | 86 ft | 18 kts | 298° |
| 2026-04-25 03:24 | 60.49666 | -145.49687 | 85 ft | 7 kts | 62° |
| 2026-04-25 03:25 | 60.49659 | -145.49604 | 85 ft | 3 kts | 109° |
| 2026-04-25 03:25 | 60.49657 | -145.49596 | 85 ft | 0 kts | 109° |
| 2026-04-25 03:26 | 60.49612 | -145.49393 | 88 ft | 49 kts | 114° |
| 2026-04-25 03:26 | 60.49370 | -145.48308 | 88 ft | 117 kts | 114° |
| 2026-04-25 03:26 | 60.48953 | -145.46510 | 313 ft | 154 kts | 114° |
| 2026-04-25 03:27 | 60.48430 | -145.44568 | 1030 ft | 161 kts | 129° |
| 2026-04-25 03:27 | 60.47479 | -145.43399 | 1821 ft | 168 kts | 169° |
| 2026-04-25 03:27 | 60.46345 | -145.43275 | 3015 ft | 156 kts | 173° |
| 2026-04-25 03:27 | 60.45225 | -145.43212 | 3752 ft | 169 kts | 160° |
| 2026-04-25 03:28 | 60.44074 | -145.42301 | 4064 ft | 191 kts | 146° |
| 2026-04-25 03:28 | 60.42867 | -145.40920 | 4648 ft | 208 kts | 147° |
| 2026-04-25 03:28 | 60.41528 | -145.39398 | 5268 ft | 227 kts | 148° |
| 2026-04-25 03:28 | 60.40149 | -145.37833 | 6246 ft | 233 kts | 149° |
| 2026-04-25 03:29 | 60.38722 | -145.36213 | 7208 ft | 238 kts | 151° |
| 2026-04-25 03:29 | 60.37263 | -145.34556 | 8123 ft | 243 kts | 152° |
| 2026-04-25 03:29 | 60.35753 | -145.32842 | 9077 ft | 248 kts | 153° |
| 2026-04-25 03:29 | 60.34293 | -145.31010 | 9974 ft | 256 kts | 142° |
| 2026-04-25 03:30 | 60.33103 | -145.28090 | 10517 ft | 282 kts | 126° |
| 2026-04-25 03:30 | 60.32365 | -145.24221 | 10771 ft | 315 kts | 111° |
| 2026-04-25 03:30 | 60.31809 | -145.19855 | 11406 ft | 326 kts | 109° |
| 2026-04-25 03:30 | 60.31276 | -145.15368 | 12186 ft | 332 kts | 109° |
| 2026-04-25 03:31 | 60.30738 | -145.10789 | 13008 ft | 338 kts | 109° |
| 2026-04-25 03:31 | 60.30186 | -145.06140 | 13816 ft | 344 kts | 109° |
| 2026-04-25 03:31 | 60.29616 | -145.01395 | 14507 ft | 352 kts | 110° |
| 2026-04-25 03:31 | 60.29031 | -144.96588 | 15349 ft | 354 kts | 110° |
| 2026-04-25 03:32 | 60.28427 | -144.91699 | 16292 ft | 355 kts | 110° |
| 2026-04-25 03:32 | 60.27833 | -144.86930 | 17144 ft | 357 kts | 110° |
| 2026-04-25 03:32 | 60.27222 | -144.82057 | 17858 ft | 361 kts | 111° |
| 2026-04-25 03:32 | 60.26604 | -144.77131 | 18603 ft | 365 kts | 111° |
| 2026-04-25 03:33 | 60.25977 | -144.72149 | 19172 ft | 370 kts | 111° |
| 2026-04-25 03:33 | 60.25339 | -144.67091 | 19731 ft | 375 kts | 111° |
| 2026-04-25 03:33 | 60.24693 | -144.61981 | 20364 ft | 378 kts | 112° |
| 2026-04-25 03:33 | 60.24043 | -144.56837 | 21000 ft | 381 kts | 112° |
| 2026-04-25 03:34 | 60.23384 | -144.51650 | 21589 ft | 384 kts | 112° |
| 2026-04-25 03:34 | 60.22731 | -144.46401 | 22159 ft | 390 kts | 111° |
| 2026-04-25 03:34 | 60.22153 | -144.41044 | 22722 ft | 394 kts | 109° |
| 2026-04-25 03:34 | 60.21615 | -144.35622 | 23397 ft | 395 kts | 109° |
| 2026-04-25 03:35 | 60.21091 | -144.30209 | 24131 ft | 393 kts | 109° |
| 2026-04-25 03:35 | 60.20568 | -144.24835 | 24811 ft | 390 kts | 109° |
| 2026-04-25 03:35 | 60.20044 | -144.19505 | 25493 ft | 388 kts | 109° |
| 2026-04-25 03:35 | 60.19514 | -144.14210 | 26131 ft | 386 kts | 109° |
| 2026-04-25 03:36 | 60.18978 | -144.08929 | 26763 ft | 384 kts | 109° |
| 2026-04-25 03:36 | 60.18438 | -144.03673 | 27278 ft | 385 kts | 110° |
| 2026-04-25 03:36 | 60.17894 | -143.98418 | 27262 ft | 383 kts | 110° |
| 2026-04-25 03:36 | 60.17351 | -143.93187 | 27280 ft | 382 kts | 110° |
| 2026-04-25 03:37 | 60.16804 | -143.87959 | 27294 ft | 383 kts | 110° |
| 2026-04-25 03:37 | 60.16253 | -143.82716 | 27298 ft | 384 kts | 110° |
| 2026-04-25 03:37 | 60.15699 | -143.77464 | 27296 ft | 385 kts | 110° |
| 2026-04-25 03:37 | 60.15143 | -143.72210 | 27296 ft | 385 kts | 110° |
| 2026-04-25 03:38 | 60.14585 | -143.66959 | 27291 ft | 385 kts | 110° |
| 2026-04-25 03:38 | 60.14026 | -143.61706 | 27293 ft | 385 kts | 110° |
| 2026-04-25 03:38 | 60.13464 | -143.56456 | 27288 ft | 384 kts | 110° |
| 2026-04-25 03:38 | 60.12902 | -143.51220 | 27295 ft | 384 kts | 110° |
| 2026-04-25 03:39 | 60.12338 | -143.45991 | 27294 ft | 383 kts | 110° |
| 2026-04-25 03:39 | 60.11773 | -143.40775 | 27297 ft | 383 kts | 110° |
| 2026-04-25 03:39 | 60.11207 | -143.35565 | 27307 ft | 382 kts | 110° |
| 2026-04-25 03:39 | 60.10639 | -143.30362 | 27309 ft | 382 kts | 110° |
| 2026-04-25 03:40 | 60.10069 | -143.25166 | 27308 ft | 382 kts | 110° |
| 2026-04-25 03:40 | 60.09496 | -143.19964 | 27311 ft | 382 kts | 110° |
| 2026-04-25 03:40 | 60.08923 | -143.14776 | 27310 ft | 382 kts | 110° |
| 2026-04-25 03:40 | 60.08347 | -143.09583 | 27308 ft | 382 kts | 110° |
| 2026-04-25 03:41 | 60.07770 | -143.04398 | 27311 ft | 381 kts | 110° |
| 2026-04-25 03:41 | 60.07191 | -142.99219 | 27314 ft | 382 kts | 110° |
| 2026-04-25 03:41 | 60.06609 | -142.94033 | 27285 ft | 381 kts | 110° |
| 2026-04-25 03:41 | 60.06027 | -142.88863 | 27307 ft | 381 kts | 110° |
| 2026-04-25 03:42 | 60.05442 | -142.83691 | 27307 ft | 381 kts | 110° |
| 2026-04-25 03:42 | 60.04854 | -142.78515 | 27311 ft | 382 kts | 110° |
| 2026-04-25 03:42 | 60.04264 | -142.73334 | 27317 ft | 382 kts | 110° |
| 2026-04-25 03:42 | 60.03671 | -142.68154 | 27326 ft | 382 kts | 110° |
| 2026-04-25 03:43 | 60.03076 | -142.62970 | 27322 ft | 383 kts | 110° |
| 2026-04-25 03:43 | 60.02478 | -142.57781 | 27317 ft | 383 kts | 110° |
| 2026-04-25 03:43 | 60.01878 | -142.52590 | 27321 ft | 383 kts | 110° |
| 2026-04-25 03:43 | 60.01277 | -142.47409 | 27321 ft | 383 kts | 111° |
| 2026-04-25 03:44 | 60.00670 | -142.42209 | 27027 ft | 385 kts | 111° |
| 2026-04-25 03:44 | 60.00066 | -142.37028 | 26662 ft | 382 kts | 111° |
| 2026-04-25 03:44 | 59.99471 | -142.31950 | 26245 ft | 378 kts | 111° |
| 2026-04-25 03:44 | 59.98875 | -142.26866 | 25757 ft | 375 kts | 111° |
| 2026-04-25 03:45 | 59.98280 | -142.21826 | 25325 ft | 371 kts | 111° |
| 2026-04-25 03:45 | 59.97690 | -142.16840 | 24892 ft | 367 kts | 111° |
| 2026-04-25 03:45 | 59.97101 | -142.11891 | 24459 ft | 365 kts | 111° |
| 2026-04-25 03:45 | 59.96514 | -142.06983 | 24029 ft | 362 kts | 111° |
| 2026-04-25 03:46 | 59.95929 | -142.02112 | 23530 ft | 361 kts | 111° |
| 2026-04-25 03:46 | 59.95345 | -141.97264 | 23047 ft | 358 kts | 111° |
| 2026-04-25 03:46 | 59.94765 | -141.92459 | 22576 ft | 355 kts | 111° |
| 2026-04-25 03:46 | 59.94189 | -141.87696 | 22136 ft | 351 kts | 111° |
| 2026-04-25 03:47 | 59.93616 | -141.82980 | 21700 ft | 348 kts | 111° |
| 2026-04-25 03:47 | 59.93046 | -141.78306 | 21266 ft | 346 kts | 111° |
| 2026-04-25 03:47 | 59.92479 | -141.73668 | 20834 ft | 343 kts | 111° |
| 2026-04-25 03:47 | 59.91913 | -141.69064 | 20405 ft | 341 kts | 111° |
| 2026-04-25 03:48 | 59.91350 | -141.64490 | 19973 ft | 339 kts | 111° |
| 2026-04-25 03:48 | 59.90787 | -141.59940 | 19549 ft | 337 kts | 111° |
| 2026-04-25 03:48 | 59.90226 | -141.55416 | 19106 ft | 336 kts | 110° |
| 2026-04-25 03:48 | 59.89666 | -141.50909 | 18688 ft | 335 kts | 110° |
| 2026-04-25 03:49 | 59.89105 | -141.46413 | 18193 ft | 334 kts | 110° |
| 2026-04-25 03:49 | 59.88546 | -141.41946 | 17710 ft | 333 kts | 110° |
| 2026-04-25 03:49 | 59.87976 | -141.37417 | 17006 ft | 339 kts | 110° |
| 2026-04-25 03:49 | 59.87405 | -141.32884 | 16512 ft | 338 kts | 110° |
| 2026-04-25 03:50 | 59.86836 | -141.28369 | 16069 ft | 335 kts | 110° |
| 2026-04-25 03:50 | 59.86270 | -141.23889 | 15621 ft | 333 kts | 110° |
| 2026-04-25 03:50 | 59.85706 | -141.19436 | 15192 ft | 331 kts | 110° |
| 2026-04-25 03:50 | 59.85145 | -141.15021 | 14764 ft | 328 kts | 110° |
| 2026-04-25 03:51 | 59.84584 | -141.10628 | 14328 ft | 326 kts | 110° |
| 2026-04-25 03:51 | 59.84026 | -141.06271 | 13869 ft | 325 kts | 110° |
| 2026-04-25 03:51 | 59.83477 | -141.01993 | 13409 ft | 322 kts | 110° |
| 2026-04-25 03:51 | 59.82923 | -140.97698 | 12965 ft | 320 kts | 110° |
| 2026-04-25 03:52 | 59.82374 | -140.93439 | 12533 ft | 317 kts | 110° |
| 2026-04-25 03:52 | 59.81827 | -140.89219 | 12083 ft | 314 kts | 109° |
| 2026-04-25 03:52 | 59.81284 | -140.85037 | 11671 ft | 311 kts | 109° |
| 2026-04-25 03:52 | 59.80743 | -140.80889 | 11258 ft | 309 kts | 109° |
| 2026-04-25 03:53 | 59.80205 | -140.76772 | 10846 ft | 307 kts | 109° |
| 2026-04-25 03:53 | 59.79669 | -140.72676 | 10448 ft | 306 kts | 109° |
| 2026-04-25 03:53 | 59.79138 | -140.68629 | 10207 ft | 297 kts | 109° |
| 2026-04-25 03:53 | 59.78627 | -140.64727 | 10037 ft | 287 kts | 109° |
| 2026-04-25 03:54 | 59.78127 | -140.60938 | 9706 ft | 283 kts | 109° |
| 2026-04-25 03:54 | 59.77630 | -140.57190 | 9383 ft | 279 kts | 109° |
| 2026-04-25 03:54 | 59.77138 | -140.53486 | 9026 ft | 277 kts | 109° |
| 2026-04-25 03:54 | 59.76650 | -140.49814 | 8692 ft | 274 kts | 108° |
| 2026-04-25 03:55 | 59.76165 | -140.46179 | 8345 ft | 271 kts | 108° |
| 2026-04-25 03:55 | 59.75683 | -140.42576 | 8007 ft | 269 kts | 108° |
| 2026-04-25 03:55 | 59.75204 | -140.39004 | 7673 ft | 267 kts | 108° |
| 2026-04-25 03:55 | 59.74729 | -140.35465 | 7337 ft | 265 kts | 108° |
| 2026-04-25 03:56 | 59.74257 | -140.31955 | 7018 ft | 262 kts | 108° |
| 2026-04-25 03:56 | 59.73788 | -140.28475 | 6681 ft | 260 kts | 107° |
| 2026-04-25 03:56 | 59.73322 | -140.25021 | 6332 ft | 258 kts | 107° |
| 2026-04-25 03:56 | 59.72861 | -140.21611 | 5996 ft | 255 kts | 107° |
| 2026-04-25 03:57 | 59.72403 | -140.18229 | 5665 ft | 253 kts | 107° |
| 2026-04-25 03:57 | 59.71946 | -140.14871 | 5343 ft | 251 kts | 107° |
| 2026-04-25 03:57 | 59.71646 | -140.12667 | 5130 ft | 249 kts | 107° |
| 2026-04-25 03:57 | 59.71200 | -140.09402 | 4775 ft | 241 kts | 106° |
| 2026-04-25 03:58 | 59.70760 | -140.06260 | 4461 ft | 232 kts | 110° |
| 2026-04-25 03:58 | 59.69914 | -140.03649 | 4142 ft | 223 kts | 134° |
| 2026-04-25 03:58 | 59.68838 | -140.01505 | 3869 ft | 217 kts | 135° |
| 2026-04-25 03:58 | 59.67787 | -139.99423 | 3604 ft | 210 kts | 135° |
| 2026-04-25 03:59 | 59.66773 | -139.97412 | 3369 ft | 202 kts | 135° |
| 2026-04-25 03:59 | 59.65792 | -139.95466 | 3273 ft | 199 kts | 135° |
| 2026-04-25 03:59 | 59.64808 | -139.93513 | 3175 ft | 201 kts | 135° |
| 2026-04-25 03:59 | 59.63828 | -139.91507 | 3085 ft | 204 kts | 133° |
| 2026-04-25 04:00 | 59.62837 | -139.89485 | 2960 ft | 205 kts | 135° |
| 2026-04-25 04:00 | 59.61839 | -139.87517 | 2912 ft | 201 kts | 135° |
| 2026-04-25 04:00 | 59.60836 | -139.85548 | 2722 ft | 206 kts | 135° |
| 2026-04-25 04:00 | 59.59835 | -139.83578 | 2453 ft | 197 kts | 135° |
| 2026-04-25 04:01 | 59.58908 | -139.81753 | 2197 ft | 179 kts | 135° |
| 2026-04-25 04:01 | 59.58075 | -139.80112 | 1978 ft | 164 kts | 135° |
| 2026-04-25 04:01 | 59.57305 | -139.78595 | 1814 ft | 143 kts | 135° |
| 2026-04-25 04:01 | 59.56642 | -139.77288 | 1593 ft | 130 kts | 135° |
| 2026-04-25 04:02 | 59.56009 | -139.76045 | 1427 ft | 129 kts | 135° |
| 2026-04-25 04:02 | 59.55369 | -139.74793 | 1238 ft | 128 kts | 134° |
| 2026-04-25 04:02 | 59.54748 | -139.73551 | 1064 ft | 127 kts | 134° |
| 2026-04-25 04:02 | 59.54123 | -139.72337 | 891 ft | 125 kts | 136° |
| 2026-04-25 04:03 | 59.53504 | -139.71152 | 735 ft | 124 kts | 134° |
| 2026-04-25 04:03 | 59.52900 | -139.69957 | 593 ft | 123 kts | 135° |
| 2026-04-25 04:03 | 59.52292 | -139.68766 | 383 ft | 124 kts | 134° |
| 2026-04-25 04:03 | 59.51664 | -139.67528 | 218 ft | 134 kts | 135° |
| 2026-04-25 04:04 | 59.50981 | -139.66187 | 65 ft | 142 kts | 135° |
| 2026-04-25 04:04 | 59.50341 | -139.64940 | 49 ft | 105 kts | 135° |
| 2026-04-25 04:04 | 59.49961 | -139.64200 | 55 ft | 63 kts | 135° |
| 2026-04-25 04:04 | 59.49726 | -139.63748 | 61 ft | 36 kts | 139° |
| 2026-04-25 04:05 | 59.49664 | -139.63592 | 61 ft | 7 kts | 65° |
| 2026-04-25 04:05 | 59.49671 | -139.63598 | 57 ft | 1 kts | 312° |
| 2026-04-25 04:05 | 59.49711 | -139.63694 | 53 ft | 21 kts | 310° |
| 2026-04-25 04:05 | 59.49848 | -139.63972 | 55 ft | 36 kts | 317° |
| 2026-04-25 04:06 | 59.50046 | -139.64355 | 57 ft | 40 kts | 316° |
| 2026-04-25 04:06 | 59.50235 | -139.64727 | 53 ft | 37 kts | 315° |
| 2026-04-25 04:06 | 59.50412 | -139.65069 | 52 ft | 34 kts | 315° |
| 2026-04-25 04:06 | 59.50572 | -139.65386 | 51 ft | 31 kts | 316° |
| 2026-04-25 04:07 | 59.50720 | -139.65673 | 48 ft | 29 kts | 316° |
| 2026-04-25 04:07 | 59.50853 | -139.65965 | 47 ft | 28 kts | 283° |
| 2026-04-25 04:07 | 59.50861 | -139.66321 | 49 ft | 25 kts | 297° |
| 2026-04-25 04:07 | 59.50955 | -139.66588 | 46 ft | 17 kts | 309° |
| 2026-04-25 04:08 | 59.50998 | -139.66645 | 45 ft | 6 kts | 317° |
| 2026-04-25 04:08 | 59.51013 | -139.66671 | 47 ft | 0 kts | 318° |